Time;durP1;ratioP1;P1;durP2;ratioP2;P2;SDS_P1;SDS_P2;PMS_P1;PMS_P2;Temp;Humidity;BMP_temperature;BMP_pressure;BME280_temperature;BME280_humidity;BME280_pressure;Samples;Min_cycle;Max_cycle;Signal;HPM_P1;HPM_P2
2022/08/31 00:04:56;;;;;;;;;3.75;3.25;;;;;;;;5024423;28;8852;-78
2022/08/31 00:07:23;;;;;;;;;3.00;3.00;;;;;;;;5005930;28;8887;-78
2022/08/31 00:09:50;;;;;;;;;3.50;3.50;;;;;;;;5024028;28;8898;-78
2022/08/31 00:12:18;;;;;;;;;4.25;4.25;;;;;;;;5015204;28;10144;-78
2022/08/31 00:14:47;;;;;;;;;3.00;3.00;;;;;;;;5023254;28;8872;-78
2022/08/31 00:17:15;;;;;;;;;5.50;4.75;;;;;;;;5024408;28;8977;-78
2022/08/31 00:19:42;;;;;;;;;6.00;4.00;;;;;;;;5012719;28;9764;-77
2022/08/31 00:22:10;;;;;;;;;4.25;4.25;;;;;;;;5022901;28;8995;-77
2022/08/31 00:24:37;;;;;;;;;4.00;4.00;;;;;;;;5023172;28;8861;-78
2022/08/31 00:27:04;;;;;;;;;3.75;3.75;;;;;;;;5023857;28;8880;-78
2022/08/31 00:29:32;;;;;;;;;5.00;3.00;;;;;;;;5020980;28;8946;-78
2022/08/31 00:32:00;;;;;;;;;4.25;4.25;;;;;;;;5022332;28;8947;-78
2022/08/31 00:34:27;;;;;;;;;3.25;3.25;;;;;;;;5023512;28;8856;-77
2022/08/31 00:36:55;;;;;;;;;5.25;4.00;;;;;;;;5023484;28;8876;-77
2022/08/31 00:39:22;;;;;;;;;3.00;3.00;;;;;;;;5019928;28;9699;-78
2022/08/31 00:41:49;;;;;;;;;3.25;3.25;;;;;;;;5022393;28;8987;-77
2022/08/31 00:44:17;;;;;;;;;4.25;4.25;;;;;;;;5023509;28;8880;-78
2022/08/31 00:46:44;;;;;;;;;3.00;3.00;;;;;;;;5019588;28;8853;-78
2022/08/31 00:49:16;;;;;;;;;3.00;3.00;;;;;;;;5022899;28;8926;-78
2022/08/31 00:51:46;;;;;;;;;4.00;4.00;;;;;;;;5022004;28;8872;-78
2022/08/31 00:54:16;;;;;;;;;2.75;2.75;;;;;;;;5022588;28;9676;-78
2022/08/31 00:56:44;;;;;;;;;3.50;3.25;;;;;;;;5023359;28;8872;-78
2022/08/31 00:59:11;;;;;;;;;6.00;3.25;;;;;;;;5022517;28;8899;-78
2022/08/31 01:01:39;;;;;;;;;3.25;3.25;;;;;;;;5021611;28;8871;-78
2022/08/31 01:04:06;;;;;;;;;4.00;4.00;;;;;;;;5021403;28;8856;-78
2022/08/31 01:06:35;;;;;;;;;4.00;4.00;;;;;;;;5021305;28;8861;-77
2022/08/31 01:09:04;;;;;;;;;5.00;4.50;;;;;;;;5022955;28;8849;-78
2022/08/31 01:11:31;;;;;;;;;3.25;3.25;;;;;;;;5021633;28;8890;-78
2022/08/31 01:13:59;;;;;;;;;4.00;4.00;;;;;;;;5023300;28;8899;-77
2022/08/31 01:16:30;;;;;;;;;5.00;4.25;;;;;;;;5021430;28;8876;-77
2022/08/31 01:18:59;;;;;;;;;4.50;4.50;;;;;;;;5022803;28;8865;-77
2022/08/31 01:21:30;;;;;;;;;2.75;2.75;;;;;;;;5021542;28;8875;-76
2022/08/31 01:24:02;;;;;;;;;3.00;3.00;;;;;;;;5023657;28;8872;-78
2022/08/31 01:26:32;;;;;;;;;3.75;3.75;;;;;;;;5022885;28;8903;-78
2022/08/31 01:29:02;;;;;;;;;3.25;3.25;;;;;;;;5022178;28;8889;-77
2022/08/31 01:31:34;;;;;;;;;5.00;3.75;;;;;;;;5022136;28;8801;-75
2022/08/31 01:34:01;;;;;;;;;2.25;2.25;;;;;;;;5021945;28;8852;-75
2022/08/31 01:36:29;;;;;;;;;3.50;3.50;;;;;;;;5019764;28;8874;-75
2022/08/31 01:38:58;;;;;;;;;4.00;3.00;;;;;;;;5011320;28;8860;-75
2022/08/31 01:41:26;;;;;;;;;2.75;2.75;;;;;;;;5022343;28;9768;-76
2022/08/31 01:43:53;;;;;;;;;4.00;4.00;;;;;;;;5023366;28;8887;-76
2022/08/31 01:46:21;;;;;;;;;4.00;2.50;;;;;;;;5021094;28;8869;-75
2022/08/31 01:48:48;;;;;;;;;4.25;4.25;;;;;;;;5022285;28;8876;-76
2022/08/31 01:51:17;;;;;;;;;3.75;3.75;;;;;;;;5021234;28;8959;-77
2022/08/31 01:53:48;;;;;;;;;5.50;4.00;;;;;;;;5004574;28;8849;-75
2022/08/31 01:56:20;;;;;;;;;4.00;4.00;;;;;;;;5021852;28;9469;-76
2022/08/31 01:58:47;;;;;;;;;4.50;3.00;;;;;;;;5022809;28;8876;-75
2022/08/31 02:01:15;;;;;;;;;3.75;3.75;;;;;;;;5021851;28;8821;-76
2022/08/31 02:03:42;;;;;;;;;3.00;3.00;;;;;;;;5021231;28;8900;-75
2022/08/31 02:06:11;;;;;;;;;4.25;2.25;;;;;;;;5022543;28;8898;-77
2022/08/31 02:08:39;;;;;;;;;3.00;3.00;;;;;;;;5021553;28;8864;-76
2022/08/31 02:11:07;;;;;;;;;4.75;4.00;;;;;;;;5034192;28;8881;-75
2022/08/31 02:13:36;;;;;;;;;4.00;4.00;;;;;;;;5021876;28;8873;-76
2022/08/31 02:16:04;;;;;;;;;3.25;3.25;;;;;;;;5021894;28;8864;-75
2022/08/31 02:18:32;;;;;;;;;4.00;4.00;;;;;;;;5022068;28;8880;-76
2022/08/31 02:20:59;;;;;;;;;4.00;4.00;;;;;;;;5007843;28;8962;-75
2022/08/31 02:23:27;;;;;;;;;3.75;3.75;;;;;;;;5023821;28;8892;-76
2022/08/31 02:25:55;;;;;;;;;4.75;4.75;;;;;;;;5024766;28;8922;-77
2022/08/31 02:28:22;;;;;;;;;4.00;4.00;;;;;;;;5022564;28;9704;-76
2022/08/31 02:30:51;;;;;;;;;3.75;3.75;;;;;;;;5024378;28;9610;-77
2022/08/31 02:33:18;;;;;;;;;6.00;4.50;;;;;;;;5017079;28;8943;-77
2022/08/31 02:35:46;;;;;;;;;5.00;5.00;;;;;;;;5013988;28;8867;-77
2022/08/31 02:38:13;;;;;;;;;3.00;3.00;;;;;;;;5025384;28;8895;-77
2022/08/31 02:40:41;;;;;;;;;5.25;4.75;;;;;;;;5012992;28;8861;-76
2022/08/31 02:43:09;;;;;;;;;4.50;3.00;;;;;;;;5010815;28;8869;-77
2022/08/31 02:45:37;;;;;;;;;3.00;2.00;;;;;;;;5021898;28;10308;-77
2022/08/31 02:48:07;;;;;;;;;5.75;5.75;;;;;;;;5024541;28;8877;-76
2022/08/31 02:50:37;;;;;;;;;4.00;4.00;;;;;;;;5025680;28;9504;-76
2022/08/31 02:53:05;;;;;;;;;5.75;5.00;;;;;;;;5025095;28;8872;-76
2022/08/31 02:55:32;;;;;;;;;3.50;3.50;;;;;;;;5024270;28;8883;-77
2022/08/31 02:57:59;;;;;;;;;3.00;3.00;;;;;;;;5025570;28;8849;-78
2022/08/31 03:00:27;;;;;;;;;4.00;2.25;;;;;;;;5022972;28;8795;-77
2022/08/31 03:02:54;;;;;;;;;2.50;2.50;;;;;;;;5024456;28;8884;-76
2022/08/31 03:05:23;;;;;;;;;5.00;5.00;;;;;;;;5023940;28;8856;-75
2022/08/31 03:07:51;;;;;;;;;5.00;5.00;;;;;;;;5025342;28;8897;-75
2022/08/31 03:10:21;;;;;;;;;4.50;4.50;;;;;;;;5024853;28;9038;-76
2022/08/31 03:12:48;;;;;;;;;4.50;4.50;;;;;;;;5024680;28;8954;-75
2022/08/31 03:15:16;;;;;;;;;4.00;4.00;;;;;;;;5025408;28;8884;-76
2022/08/31 03:17:43;;;;;;;;;2.00;2.00;;;;;;;;5019121;28;8894;-76
2022/08/31 03:20:12;;;;;;;;;5.50;4.00;;;;;;;;5010031;28;8957;-75
2022/08/31 03:22:41;;;;;;;;;5.50;4.25;;;;;;;;5024720;28;8892;-76
2022/08/31 03:25:10;;;;;;;;;3.00;3.00;;;;;;;;5024991;28;8874;-76
2022/08/31 03:27:38;;;;;;;;;4.00;4.00;;;;;;;;5024268;28;8864;-77
2022/08/31 03:30:08;;;;;;;;;4.75;4.75;;;;;;;;5024163;28;9708;-75
2022/08/31 03:32:35;;;;;;;;;4.50;4.50;;;;;;;;5012862;28;8840;-75
2022/08/31 03:35:03;;;;;;;;;4.00;4.00;;;;;;;;5044217;28;8865;-76
2022/08/31 03:37:31;;;;;;;;;4.00;4.00;;;;;;;;5024851;28;8895;-76
2022/08/31 03:39:59;;;;;;;;;6.00;6.00;;;;;;;;5023951;28;8975;-75
2022/08/31 03:42:28;;;;;;;;;2.00;2.00;;;;;;;;5024933;28;9023;-76
2022/08/31 03:44:56;;;;;;;;;4.25;4.25;;;;;;;;5006895;28;8953;-76
2022/08/31 03:47:23;;;;;;;;;4.00;4.00;;;;;;;;5023680;28;8864;-76
2022/08/31 03:49:50;;;;;;;;;3.25;3.25;;;;;;;;5024473;28;8895;-76
2022/08/31 03:52:20;;;;;;;;;5.25;4.25;;;;;;;;5008576;28;8912;-76
2022/08/31 03:54:48;;;;;;;;;4.75;4.75;;;;;;;;5024758;28;8880;-76
2022/08/31 03:57:16;;;;;;;;;3.75;3.75;;;;;;;;5023479;28;9618;-76
2022/08/31 03:59:43;;;;;;;;;4.00;4.00;;;;;;;;5023573;28;8876;-76
2022/08/31 04:02:11;;;;;;;;;3.75;3.75;;;;;;;;5022890;28;8824;-75
2022/08/31 04:04:38;;;;;;;;;4.25;3.00;;;;;;;;5024289;28;8896;-75
2022/08/31 04:07:05;;;;;;;;;7.00;3.50;;;;;;;;5023781;28;8898;-75
2022/08/31 04:09:32;;;;;;;;;3.00;3.00;;;;;;;;5018824;28;8909;-76
2022/08/31 04:11:59;;;;;;;;;5.25;5.25;;;;;;;;5023662;28;8863;-75
2022/08/31 04:14:28;;;;;;;;;5.00;5.00;;;;;;;;5019711;28;8868;-75
2022/08/31 04:16:56;;;;;;;;;6.00;4.00;;;;;;;;5023626;28;8905;-76
2022/08/31 04:19:23;;;;;;;;;4.75;4.00;;;;;;;;5022403;28;8892;-75
2022/08/31 04:21:51;;;;;;;;;4.50;4.25;;;;;;;;5018328;28;8880;-75
2022/08/31 04:24:18;;;;;;;;;3.75;3.75;;;;;;;;5023981;28;8882;-75
2022/08/31 04:26:46;;;;;;;;;5.25;5.25;;;;;;;;5008798;28;8899;-75
2022/08/31 04:29:13;;;;;;;;;4.00;4.00;;;;;;;;5024200;28;9817;-75
2022/08/31 04:31:42;;;;;;;;;4.00;4.00;;;;;;;;5022312;28;8820;-77
2022/08/31 04:34:09;;;;;;;;;2.00;2.00;;;;;;;;5022686;28;8918;-76
2022/08/31 04:36:38;;;;;;;;;4.25;4.25;;;;;;;;5022970;28;8876;-75
2022/08/31 04:39:07;;;;;;;;;6.00;5.00;;;;;;;;5023678;28;9666;-75
2022/08/31 04:41:36;;;;;;;;;5.00;3.75;;;;;;;;5021699;28;8891;-74
2022/08/31 04:44:05;;;;;;;;;4.00;4.00;;;;;;;;5019006;28;8867;-75
2022/08/31 04:46:33;;;;;;;;;4.00;4.00;;;;;;;;5023231;28;8868;-75
2022/08/31 04:49:01;;;;;;;;;3.00;3.00;;;;;;;;5022492;28;8864;-75
2022/08/31 04:51:31;;;;;;;;;3.75;3.75;;;;;;;;5023697;28;8979;-75
2022/08/31 04:53:59;;;;;;;;;4.50;4.50;;;;;;;;5020485;28;8916;-76
2022/08/31 04:56:29;;;;;;;;;4.75;4.50;;;;;;;;5003202;28;8883;-76
2022/08/31 04:58:59;;;;;;;;;4.00;4.00;;;;;;;;5023329;28;9692;-75
2022/08/31 05:01:29;;;;;;;;;4.75;4.75;;;;;;;;5021626;28;8796;-76
2022/08/31 05:03:57;;;;;;;;;4.25;4.25;;;;;;;;5023826;28;9421;-76
2022/08/31 05:06:27;;;;;;;;;5.33;5.33;;;;;;;;5022094;28;8930;-76
2022/08/31 05:08:56;;;;;;;;;5.00;3.33;;;;;;;;5017167;28;8986;-75
2022/08/31 05:11:25;;;;;;;;;5.00;5.00;;;;;;;;5021440;28;8969;-75
2022/08/31 05:13:53;;;;;;;;;5.00;5.00;;;;;;;;5024132;28;8978;-75
2022/08/31 05:16:21;;;;;;;;;4.00;4.00;;;;;;;;5022823;28;8899;-75
2022/08/31 05:18:49;;;;;;;;;5.25;5.00;;;;;;;;5015909;28;8868;-75
2022/08/31 05:21:26;;;;;;;;;4.00;4.00;;;;;;;;5023330;28;8864;-75
2022/08/31 05:23:56;;;;;;;;;5.00;4.00;;;;;;;;5020995;28;8876;-75
2022/08/31 05:26:25;;;;;;;;;4.75;4.75;;;;;;;;5023072;28;8923;-76
2022/08/31 05:28:53;;;;;;;;;4.75;4.75;;;;;;;;5022373;28;8926;-75
2022/08/31 05:31:21;;;;;;;;;6.75;5.00;;;;;;;;5021900;28;8820;-75
2022/08/31 05:33:48;;;;;;;;;4.50;4.50;;;;;;;;5022530;28;9752;-74
2022/08/31 05:36:16;;;;;;;;;5.25;5.25;;;;;;;;5016148;28;8897;-74
2022/08/31 05:38:44;;;;;;;;;7.25;6.25;;;;;;;;5023779;28;8865;-75
2022/08/31 05:41:14;;;;;;;;;5.75;5.00;;;;;;;;5003369;28;8861;-75
2022/08/31 05:43:42;;;;;;;;;6.25;5.00;;;;;;;;5023495;28;8876;-75
2022/08/31 05:46:11;;;;;;;;;2.75;2.75;;;;;;;;5020358;28;8970;-75
2022/08/31 05:48:38;;;;;;;;;5.50;5.50;;;;;;;;5017787;28;8864;-74
2022/08/31 05:51:08;;;;;;;;;3.75;3.75;;;;;;;;5021662;28;8853;-75
2022/08/31 05:53:35;;;;;;;;;5.50;5.50;;;;;;;;5021885;28;8895;-74
2022/08/31 05:56:05;;;;;;;;;6.00;5.00;;;;;;;;5022133;28;8853;-75
2022/08/31 05:58:34;;;;;;;;;6.00;6.00;;;;;;;;5024532;28;8937;-74
2022/08/31 06:01:01;;;;;;;;;4.75;4.75;;;;;;;;5025219;28;8891;-74
2022/08/31 06:03:29;;;;;;;;;9.00;7.25;;;;;;;;5025606;28;8872;-75
2022/08/31 06:05:56;;;;;;;;;7.00;7.00;;;;;;;;5026091;28;9740;-74
2022/08/31 06:08:23;;;;;;;;;6.00;6.00;;;;;;;;5025006;28;8879;-74
2022/08/31 06:10:51;;;;;;;;;7.00;6.00;;;;;;;;5025738;28;8865;-75
2022/08/31 06:13:18;;;;;;;;;6.75;6.00;;;;;;;;5026028;28;8880;-74
2022/08/31 06:15:47;;;;;;;;;7.25;6.25;;;;;;;;5024375;28;8891;-74
2022/08/31 06:18:14;;;;;;;;;5.25;5.00;;;;;;;;5022616;28;9611;-77
2022/08/31 06:20:41;;;;;;;;;7.00;7.00;;;;;;;;5025433;28;8934;-75
2022/08/31 06:23:09;;;;;;;;;8.25;6.25;;;;;;;;5025329;28;8943;-76
2022/08/31 06:25:36;;;;;;;;;8.75;8.75;;;;;;;;5020908;28;8858;-76
2022/08/31 06:28:06;;;;;;;;;10.00;7.50;;;;;;;;5024728;28;8902;-77
2022/08/31 06:30:38;;;;;;;;;8.00;7.75;;;;;;;;5024779;28;8819;-76
2022/08/31 06:33:07;;;;;;;;;7.25;6.25;;;;;;;;5022799;28;8884;-76
2022/08/31 06:35:38;;;;;;;;;10.25;8.00;;;;;;;;5009705;28;8848;-77
2022/08/31 06:38:06;;;;;;;;;7.00;5.75;;;;;;;;5023006;28;8876;-76
2022/08/31 06:40:33;;;;;;;;;9.75;9.75;;;;;;;;5010973;28;8861;-76
2022/08/31 06:43:00;;;;;;;;;8.75;7.25;;;;;;;;5023507;28;8869;-75
2022/08/31 06:45:28;;;;;;;;;9.25;8.00;;;;;;;;5025704;28;8872;-76
2022/08/31 06:47:57;;;;;;;;;11.25;9.50;;;;;;;;5025196;28;8868;-76
2022/08/31 06:50:25;;;;;;;;;9.25;9.25;;;;;;;;5023744;28;8887;-74
2022/08/31 06:52:54;;;;;;;;;13.25;9.00;;;;;;;;5024428;28;8894;-73
2022/08/31 06:55:21;;;;;;;;;10.75;9.25;;;;;;;;5019863;28;9009;-72
2022/08/31 06:57:48;;;;;;;;;10.50;10.50;;;;;;;;5019548;28;8848;-71
2022/08/31 07:00:17;;;;;;;;;9.25;9.25;;;;;;;;5024769;28;8904;-71
2022/08/31 07:02:44;;;;;;;;;9.75;9.25;;;;;;;;5028363;28;8862;-72
2022/08/31 07:05:12;;;;;;;;;12.25;12.25;;;;;;;;5027593;28;8861;-73
2022/08/31 07:07:40;;;;;;;;;10.00;10.00;;;;;;;;5023753;28;8975;-74
2022/08/31 07:10:09;;;;;;;;;10.75;10.75;;;;;;;;5024953;28;8872;-73
2022/08/31 07:12:36;;;;;;;;;11.50;10.50;;;;;;;;5021904;28;8985;-72
2022/08/31 07:15:04;;;;;;;;;8.75;8.75;;;;;;;;5025030;28;8884;-74
2022/08/31 07:17:33;;;;;;;;;10.25;10.25;;;;;;;;5015635;28;8884;-74
2022/08/31 07:20:00;;;;;;;;;11.00;11.00;;;;;;;;5024979;28;8861;-74
2022/08/31 07:22:27;;;;;;;;;10.00;10.00;;;;;;;;5024041;28;8856;-73
2022/08/31 07:24:56;;;;;;;;;12.25;12.25;;;;;;;;5021962;28;8896;-73
2022/08/31 07:27:23;;;;;;;;;11.25;11.25;;;;;;;;5024831;28;8868;-73
2022/08/31 07:29:50;;;;;;;;;11.25;9.00;;;;;;;;5023649;28;9012;-73
2022/08/31 07:32:17;;;;;;;;;12.00;10.50;;;;;;;;5023734;28;9662;-73
2022/08/31 07:34:44;;;;;;;;;12.75;12.00;;;;;;;;5019803;28;8899;-70
2022/08/31 07:42:45;;;;;;;;;12.50;11.00;;;;;;;;5023422;28;8861;-72
2022/08/31 07:45:21;;;;;;;;;11.00;9.00;;;;;;;;5022478;28;8914;-73
2022/08/31 07:47:48;;;;;;;;;13.75;11.00;;;;;;;;5023959;28;8880;-72
2022/08/31 07:50:17;;;;;;;;;11.25;11.25;;;;;;;;5025556;28;8865;-73
2022/08/31 07:52:52;;;;;;;;;12.00;12.00;;;;;;;;5023157;28;8975;-73
2022/08/31 07:55:23;;;;;;;;;10.00;10.00;;;;;;;;5023911;28;8883;-73
2022/08/31 07:57:53;;;;;;;;;12.25;12.00;;;;;;;;5024033;28;8829;-72
2022/08/31 08:00:23;;;;;;;;;13.00;13.00;;;;;;;;5019907;28;8868;-73
2022/08/31 08:02:52;;;;;;;;;10.00;10.00;;;;;;;;5023520;28;8856;-73
2022/08/31 08:05:22;;;;;;;;;11.50;11.50;;;;;;;;5021425;28;8902;-73
2022/08/31 08:07:51;;;;;;;;;11.25;10.50;;;;;;;;5021265;28;8911;-74
2022/08/31 08:10:22;;;;;;;;;14.50;13.00;;;;;;;;5023013;28;8860;-72
2022/08/31 08:12:57;;;;;;;;;13.25;11.00;;;;;;;;5022334;28;8879;-74
2022/08/31 08:15:24;;;;;;;;;12.00;12.00;;;;;;;;5021660;28;8986;-74
2022/08/31 08:17:52;;;;;;;;;12.75;12.75;;;;;;;;5004776;28;9698;-73
2022/08/31 08:20:19;;;;;;;;;11.80;11.80;;;;;;;;5019394;28;8864;-74
2022/08/31 08:22:47;;;;;;;;;12.25;12.25;;;;;;;;5022030;28;8865;-74
2022/08/31 08:25:14;;;;;;;;;14.20;14.20;;;;;;;;5021649;28;8900;-74
2022/08/31 08:27:43;;;;;;;;;14.20;14.20;;;;;;;;5023111;28;8841;-74
2022/08/31 08:30:13;;;;;;;;;14.20;13.00;;;;;;;;5022049;28;8899;-73
2022/08/31 08:32:41;;;;;;;;;14.00;13.60;;;;;;;;5022961;28;8938;-73
2022/08/31 08:35:09;;;;;;;;;11.60;11.60;;;;;;;;5022443;28;8880;-74
2022/08/31 08:37:39;;;;;;;;;13.40;12.00;;;;;;;;5022895;28;8906;-74
2022/08/31 08:40:10;;;;;;;;;13.20;12.60;;;;;;;;5022456;28;9285;-73
2022/08/31 08:42:37;;;;;;;;;10.00;10.00;;;;;;;;5016558;28;8967;-74
2022/08/31 08:45:07;;;;;;;;;11.60;11.60;;;;;;;;5023226;28;8870;-74
2022/08/31 08:47:36;;;;;;;;;12.40;12.40;;;;;;;;5021714;28;8876;-74
2022/08/31 08:50:06;;;;;;;;;13.60;12.60;;;;;;;;5022641;28;8857;-77
2022/08/31 08:52:40;;;;;;;;;11.80;11.80;;;;;;;;5019508;28;8942;-75
2022/08/31 08:55:10;;;;;;;;;11.80;10.20;;;;;;;;5020265;28;8877;-76
2022/08/31 08:57:41;;;;;;;;;12.60;12.60;;;;;;;;5021134;28;8880;-74
2022/08/31 09:00:15;;;;;;;;;13.20;12.80;;;;;;;;5021001;28;8872;-73
2022/08/31 09:02:46;;;;;;;;;12.00;12.00;;;;;;;;5020831;28;8869;-73
2022/08/31 09:05:24;;;;;;;;;15.80;13.80;;;;;;;;5025071;28;9672;-74
2022/08/31 09:08:09;;;;;;;;;12.80;10.00;;;;;;;;5022986;28;8922;-74
2022/08/31 09:10:41;;;;;;;;;13.00;12.40;;;;;;;;5017422;28;9004;-75
2022/08/31 09:13:17;;;;;;;;;8.00;8.00;;;;;;;;5021445;28;8849;-75
2022/08/31 09:16:03;;;;;;;;;9.60;9.60;;;;;;;;5021460;28;8875;-75
2022/08/31 09:18:45;;;;;;;;;9.60;9.60;;;;;;;;5021542;28;8865;-74
2022/08/31 09:21:24;;;;;;;;;9.00;9.00;;;;;;;;5020779;28;8876;-74
2022/08/31 09:24:00;;;;;;;;;12.60;9.20;;;;;;;;5019664;28;9010;-74
2022/08/31 09:26:31;;;;;;;;;11.00;11.00;;;;;;;;5020917;28;8876;-75
2022/08/31 09:29:02;;;;;;;;;12.60;12.60;;;;;;;;5021056;28;8871;-75
2022/08/31 09:31:37;;;;;;;;;10.40;10.40;;;;;;;;5018714;28;8810;-75
2022/08/31 09:34:08;;;;;;;;;13.60;13.60;;;;;;;;5027380;28;8852;-75
2022/08/31 09:36:39;;;;;;;;;11.00;9.60;;;;;;;;5027315;28;8941;-75
2022/08/31 09:39:18;;;;;;;;;8.80;8.80;;;;;;;;5029949;28;8958;-76
2022/08/31 09:41:47;;;;;;;;;11.60;11.60;;;;;;;;5025237;28;8907;-76
2022/08/31 09:44:25;;;;;;;;;9.40;9.40;;;;;;;;5027029;28;8903;-75
2022/08/31 09:46:58;;;;;;;;;10.60;10.40;;;;;;;;5028360;28;8877;-76
2022/08/31 09:49:26;;;;;;;;;11.20;8.60;;;;;;;;5025269;28;8866;-77
2022/08/31 09:52:17;;;;;;;;;7.80;7.80;;;;;;;;5028528;28;8871;-77
2022/08/31 09:55:12;;;;;;;;;10.80;10.80;;;;;;;;5027960;28;8848;-74
2022/08/31 09:57:45;;;;;;;;;12.40;8.40;;;;;;;;5026985;28;9030;-76
2022/08/31 10:00:15;;;;;;;;;12.40;9.20;;;;;;;;5016453;28;8893;-76
2022/08/31 10:02:45;;;;;;;;;9.00;9.00;;;;;;;;5013578;28;9024;-74
2022/08/31 10:05:31;;;;;;;;;8.60;8.60;;;;;;;;5028608;28;8958;-74
2022/08/31 10:08:03;;;;;;;;;8.80;8.80;;;;;;;;5026958;28;9688;-73
2022/08/31 10:10:35;;;;;;;;;9.80;9.40;;;;;;;;5021571;28;8946;-73
2022/08/31 10:13:05;;;;;;;;;10.40;10.40;;;;;;;;5028369;28;8890;-74
2022/08/31 10:15:40;;;;;;;;;7.00;7.00;;;;;;;;5028054;28;8983;-75
2022/08/31 10:18:15;;;;;;;;;7.40;7.40;;;;;;;;5027662;28;8899;-73
2022/08/31 10:20:47;;;;;;;;;8.80;8.80;;;;;;;;5028092;28;8879;-73
2022/08/31 10:23:19;;;;;;;;;8.80;8.80;;;;;;;;5027619;28;9798;-73
2022/08/31 10:25:51;;;;;;;;;9.80;9.80;;;;;;;;5025963;28;8852;-76
2022/08/31 10:28:30;;;;;;;;;10.40;9.00;;;;;;;;5027712;28;8872;-73
2022/08/31 10:31:01;;;;;;;;;13.80;11.00;;;;;;;;5027882;28;8785;-74
2022/08/31 10:36:17;;;;;;;;;9.60;9.60;;;;;;;;5027566;28;9054;-75
2022/08/31 10:38:47;;;;;;;;;8.00;8.00;;;;;;;;5039265;28;8846;-74
2022/08/31 10:41:20;;;;;;;;;8.00;8.00;;;;;;;;5026689;28;8882;-73
2022/08/31 10:43:52;;;;;;;;;9.00;9.00;;;;;;;;5027072;28;8953;-73
2022/08/31 10:46:22;;;;;;;;;6.60;6.60;;;;;;;;5022451;28;8902;-74
2022/08/31 10:48:53;;;;;;;;;8.80;8.80;;;;;;;;5024669;28;9028;-74
2022/08/31 10:51:26;;;;;;;;;9.60;9.60;;;;;;;;5022083;28;8887;-74
2022/08/31 10:54:05;;;;;;;;;7.00;7.00;;;;;;;;5023199;28;9678;-75
2022/08/31 10:56:38;;;;;;;;;9.60;9.60;;;;;;;;5028526;28;8944;-74
2022/08/31 10:59:20;;;;;;;;;8.00;8.00;;;;;;;;5023461;28;8872;-76
2022/08/31 11:01:53;;;;;;;;;9.40;9.40;;;;;;;;5022826;28;9605;-77
2022/08/31 11:04:51;;;;;;;;;10.00;10.00;;;;;;;;5025197;28;8884;-77
2022/08/31 11:07:28;;;;;;;;;9.20;8.20;;;;;;;;5023137;28;8993;-74
2022/08/31 11:10:05;;;;;;;;;10.80;10.60;;;;;;;;5024290;28;8866;-76
2022/08/31 11:12:41;;;;;;;;;9.00;6.00;;;;;;;;5023247;28;9485;-76
2022/08/31 11:15:32;;;;;;;;;10.60;8.00;;;;;;;;5023181;28;8873;-78
2022/08/31 11:18:34;;;;;;;;;10.00;9.80;;;;;;;;5023831;28;8884;-78
2022/08/31 11:21:16;;;;;;;;;10.80;9.20;;;;;;;;5021195;28;8895;-75
2022/08/31 11:23:56;;;;;;;;;11.40;10.00;;;;;;;;5018893;28;8905;-76
2022/08/31 11:26:43;;;;;;;;;7.00;7.00;;;;;;;;5024163;28;8865;-75
2022/08/31 11:29:20;;;;;;;;;9.00;9.00;;;;;;;;5022098;28;9681;-75
2022/08/31 11:31:47;;;;;;;;;8.00;8.00;;;;;;;;5022002;28;8824;-76
2022/08/31 11:34:24;;;;;;;;;7.80;7.80;;;;;;;;5023664;28;8868;-75
2022/08/31 11:36:54;;;;;;;;;7.00;7.00;;;;;;;;5026215;28;8898;-75
2022/08/31 11:39:35;;;;;;;;;9.40;8.00;;;;;;;;5022377;28;8848;-75
2022/08/31 11:42:12;;;;;;;;;10.00;8.00;;;;;;;;5022924;28;9042;-75
2022/08/31 11:45:00;;;;;;;;;8.60;8.60;;;;;;;;5023164;28;8860;-74
2022/08/31 11:47:44;;;;;;;;;8.20;8.20;;;;;;;;5023493;28;8889;-76
2022/08/31 11:50:29;;;;;;;;;9.40;9.40;;;;;;;;5026561;28;8864;-74
2022/08/31 11:53:00;;;;;;;;;7.20;7.20;;;;;;;;5022350;28;8845;-76
2022/08/31 11:55:30;;;;;;;;;8.60;8.60;;;;;;;;5021978;28;8887;-75
2022/08/31 11:58:26;;;;;;;;;8.40;8.40;;;;;;;;5023777;28;8919;-74
2022/08/31 12:01:00;;;;;;;;;12.00;9.40;;;;;;;;4997857;28;9625;-75
2022/08/31 12:03:57;;;;;;;;;10.00;8.20;;;;;;;;5023871;28;8958;-76
2022/08/31 12:07:07;;;;;;;;;10.40;9.60;;;;;;;;5022325;28;8896;-76
2022/08/31 12:10:17;;;;;;;;;7.80;6.60;;;;;;;;5021534;28;8876;-75
2022/08/31 12:13:17;;;;;;;;;12.40;8.60;;;;;;;;5022009;28;8907;-75
2022/08/31 12:16:13;;;;;;;;;7.00;7.00;;;;;;;;5023419;28;8924;-76
2022/08/31 12:18:55;;;;;;;;;8.40;8.40;;;;;;;;5022204;28;8853;-74
2022/08/31 12:24:26;;;;;;;;;8.60;8.60;;;;;;;;5022794;28;8840;-75
2022/08/31 12:27:05;;;;;;;;;9.40;9.40;;;;;;;;5019941;28;8911;-75
2022/08/31 12:29:34;;;;;;;;;8.00;7.80;;;;;;;;5023334;28;9646;-75
2022/08/31 12:32:10;;;;;;;;;9.40;9.40;;;;;;;;5022601;28;8796;-74
2022/08/31 12:34:41;;;;;;;;;4.40;4.20;;;;;;;;5022311;28;8881;-75
2022/08/31 12:37:20;;;;;;;;;7.80;7.80;;;;;;;;5023374;28;8990;-75
2022/08/31 12:39:48;;;;;;;;;8.60;8.60;;;;;;;;5024173;28;8868;-75
2022/08/31 12:42:17;;;;;;;;;6.80;6.80;;;;;;;;5023695;28;8899;-74
2022/08/31 12:44:48;;;;;;;;;7.40;7.40;;;;;;;;5022560;28;8919;-75
2022/08/31 12:47:22;;;;;;;;;10.60;9.40;;;;;;;;5016603;28;8879;-75
2022/08/31 12:50:03;;;;;;;;;8.80;8.80;;;;;;;;5021613;28;8866;-74
2022/08/31 12:52:56;;;;;;;;;9.80;8.00;;;;;;;;5021929;28;8902;-74
2022/08/31 12:55:32;;;;;;;;;8.00;8.00;;;;;;;;5022214;28;8864;-75
2022/08/31 12:58:26;;;;;;;;;9.00;9.00;;;;;;;;5021929;28;8868;-73
2022/08/31 13:01:05;;;;;;;;;8.80;8.00;;;;;;;;5017234;28;8918;-78
2022/08/31 13:03:33;;;;;;;;;9.20;8.20;;;;;;;;5023354;28;8935;-74
2022/08/31 13:06:06;;;;;;;;;7.20;7.20;;;;;;;;5022231;28;9001;-74
2022/08/31 13:08:37;;;;;;;;;6.80;5.80;;;;;;;;5021733;28;8918;-74
2022/08/31 13:11:24;;;;;;;;;7.80;7.00;;;;;;;;5022955;28;8864;-74
2022/08/31 13:13:54;;;;;;;;;8.00;8.00;;;;;;;;5020661;28;8923;-73
2022/08/31 13:16:22;;;;;;;;;6.60;6.60;;;;;;;;5023293;28;8896;-75
2022/08/31 13:18:56;;;;;;;;;7.00;7.00;;;;;;;;5022302;28;8921;-75
2022/08/31 13:21:24;;;;;;;;;7.40;7.40;;;;;;;;5023380;28;8997;-75
2022/08/31 13:23:51;;;;;;;;;10.00;7.40;;;;;;;;5022952;28;8856;-75
2022/08/31 13:26:21;;;;;;;;;7.80;7.80;;;;;;;;5022672;28;8975;-72
2022/08/31 13:28:50;;;;;;;;;9.40;9.40;;;;;;;;5023877;28;8848;-73
2022/08/31 13:31:23;;;;;;;;;6.00;6.00;;;;;;;;5020085;28;9594;-73
2022/08/31 13:33:51;;;;;;;;;9.20;9.20;;;;;;;;5023324;28;8880;-72
2022/08/31 13:36:30;;;;;;;;;8.80;8.80;;;;;;;;5021880;28;8869;-73
2022/08/31 13:39:00;;;;;;;;;9.60;9.60;;;;;;;;5022972;28;8981;-72
2022/08/31 13:41:30;;;;;;;;;7.00;7.00;;;;;;;;5022931;28;8887;-72
2022/08/31 13:44:00;;;;;;;;;8.20;8.20;;;;;;;;5021960;28;8892;-73
2022/08/31 13:46:33;;;;;;;;;7.20;7.20;;;;;;;;5023215;28;8987;-74
2022/08/31 13:49:03;;;;;;;;;9.60;9.60;;;;;;;;5016140;28;8997;-74
2022/08/31 13:51:37;;;;;;;;;7.20;7.20;;;;;;;;5022937;28;8962;-74
2022/08/31 13:54:11;;;;;;;;;9.60;9.60;;;;;;;;5022530;28;8868;-74
2022/08/31 13:57:09;;;;;;;;;9.80;9.00;;;;;;;;5016775;28;8869;-72
2022/08/31 13:59:38;;;;;;;;;9.20;9.20;;;;;;;;5023160;28;8884;-73
2022/08/31 14:02:29;;;;;;;;;9.60;9.40;;;;;;;;5020695;28;8821;-73
2022/08/31 14:05:02;;;;;;;;;9.00;9.00;;;;;;;;5017861;28;8901;-74
2022/08/31 14:07:52;;;;;;;;;8.00;8.00;;;;;;;;5023040;28;8867;-73
2022/08/31 14:10:22;;;;;;;;;9.80;9.80;;;;;;;;5015089;28;8926;-73
2022/08/31 14:12:53;;;;;;;;;9.00;9.00;;;;;;;;5022708;28;9712;-73
2022/08/31 14:15:34;;;;;;;;;11.60;10.20;;;;;;;;5021858;28;8864;-73
2022/08/31 14:18:14;;;;;;;;;9.60;9.60;;;;;;;;5022251;28;8897;-73
2022/08/31 14:20:44;;;;;;;;;10.00;8.00;;;;;;;;5025728;28;8887;-73
2022/08/31 14:23:33;;;;;;;;;8.40;8.40;;;;;;;;5024794;28;8880;-73
2022/08/31 14:26:04;;;;;;;;;10.00;10.00;;;;;;;;5026505;28;8865;-73
2022/08/31 14:28:39;;;;;;;;;7.00;7.00;;;;;;;;5025455;28;8880;-73
2022/08/31 14:31:20;;;;;;;;;9.60;8.20;;;;;;;;5025330;28;8804;-73
2022/08/31 14:34:09;;;;;;;;;9.40;8.00;;;;;;;;5025313;28;8896;-73
2022/08/31 14:36:49;;;;;;;;;10.20;10.20;;;;;;;;5020087;28;8899;-71
2022/08/31 14:39:16;;;;;;;;;13.40;11.40;;;;;;;;5022624;28;8939;-72
2022/08/31 14:41:44;;;;;;;;;9.00;9.00;;;;;;;;5021392;28;8860;-72
2022/08/31 14:44:12;;;;;;;;;8.60;8.60;;;;;;;;5024377;28;8880;-72
2022/08/31 14:46:41;;;;;;;;;9.20;8.00;;;;;;;;5024217;28;8860;-71
2022/08/31 14:49:10;;;;;;;;;10.40;10.40;;;;;;;;5024744;28;8868;-73
2022/08/31 14:51:38;;;;;;;;;9.20;9.20;;;;;;;;5031106;28;8888;-71
2022/08/31 14:54:07;;;;;;;;;9.20;8.00;;;;;;;;5020660;28;8888;-71
2022/08/31 14:56:38;;;;;;;;;13.00;11.00;;;;;;;;5024060;28;8861;-71
2022/08/31 14:59:11;;;;;;;;;9.00;7.80;;;;;;;;5023629;28;8880;-71
2022/08/31 15:01:41;;;;;;;;;7.00;7.00;;;;;;;;5023325;28;8797;-72
2022/08/31 15:04:10;;;;;;;;;9.40;7.80;;;;;;;;5025340;28;8971;-71
2022/08/31 15:06:37;;;;;;;;;8.40;8.00;;;;;;;;5022526;28;8995;-71
2022/08/31 15:09:05;;;;;;;;;11.80;10.00;;;;;;;;5021987;28;8876;-72
2022/08/31 15:11:36;;;;;;;;;9.80;9.80;;;;;;;;5021787;28;8914;-72
2022/08/31 15:14:06;;;;;;;;;9.80;9.80;;;;;;;;5025540;28;8864;-71
2022/08/31 15:16:33;;;;;;;;;10.00;10.00;;;;;;;;5014528;28;8963;-71
2022/08/31 15:19:01;;;;;;;;;11.00;11.00;;;;;;;;5024039;28;8861;-72
2022/08/31 15:21:31;;;;;;;;;8.20;8.20;;;;;;;;5022101;28;8869;-70
2022/08/31 15:23:59;;;;;;;;;10.80;9.80;;;;;;;;5023285;28;9027;-72
2022/08/31 15:26:28;;;;;;;;;9.00;9.00;;;;;;;;5022232;28;8971;-72
2022/08/31 15:28:58;;;;;;;;;10.00;10.00;;;;;;;;5022575;28;8871;-72
2022/08/31 15:31:28;;;;;;;;;12.20;10.80;;;;;;;;5023339;28;8820;-71